Latest Weather Observations for Badgerys Creek

IDN60901

Issued at 1:25 pm EDT Saturday 1 November 2014 (issued every 10 minutes, with the page automatically refreshed every 10 minutes)

About weather observations | Map of Sydney area stations | Latest observations for Sydney area | Other Formats
Station Details ID: 067108 Name: BADGERYS CREEK AWS Lat: -33.90 Lon: 150.73 Height: 81.2 m
Data from the previous 72 hours. | See also: Recent months at Badgerys Creek
Date/Time
EDT
Tmp

°C
App
Tmp
°C
Dew
Point
°C
Rel
Hum
%
Delta-T

°C
Wind Press
QNH
hPa
Press
MSL
hPa
Rain
since
9 am
mm
Dir
 
Spd
km/h
Gust
km/h
Spd
kts
Gust
kts
01/01:03pm 34.0 28.2 14.0 30 12.3 NW 37 57 20 31 999.5 999.2 0.0
01/01:00pm 34.3 28.1 13.7 29 12.7 WNW 39 57 21 31 999.5 999.2 0.0
01/12:31pm 34.9 29.6 14.2 28 12.8 NW 35 59 19 32 999.6 999.3 0.0
01/12:30pm 34.8 29.5 14.1 28 12.8 NW 35 50 19 27 999.6 999.3 0.0
01/12:00pm 34.5 28.7 13.9 29 12.7 NW 37 54 20 29 999.8 999.5 0.0
01/11:30am 33.8 28.0 13.8 30 12.2 NW 37 52 20 28 1000.1 999.9 0.0
01/11:13am 33.4 27.5 13.5 30 12.1 NNW 37 59 20 32 1000.5 1000.3 0.0
01/11:00am 33.5 28.1 14.0 30 12.0 NNW 35 46 19 25 1000.9 1000.7 0.0
01/10:36am 32.7 28.2 13.8 31 11.5 NNW 30 54 16 29 1001.6 1001.4 0.0
01/10:30am 32.3 29.0 14.0 33 11.2 N 24 33 13 18 1001.9 1001.8 0.0
01/10:23am 32.2 28.1 13.9 33 11.1 NNW 28 46 15 25 1001.9 1001.8 0.0
01/10:00am 30.7 27.5 14.3 36 10.0 N 24 35 13 19 1002.3 1002.2 0.0
01/09:30am 27.8 24.8 13.7 42 8.4 N 22 30 12 16 1002.8 1002.7 0.0
01/09:00am 29.4 27.7 14.8 41 8.9 N 17 22 9 12 1003.2 1003.1 0.0
01/08:30am 28.2 26.5 13.7 41 8.7 N 15 24 8 13 1003.6 1003.5 0.0
01/08:00am 26.9 24.8 13.6 44 7.9 N 17 22 9 12 1003.9 1003.8 0.0
01/07:30am 24.7 23.2 13.0 48 6.8 N 13 17 7 9 1004.1 1004.0 0.0
01/07:00am 23.5 23.4 13.4 53 5.9 N 6 11 3 6 1004.3 1004.2 0.0
01/06:30am 22.5 21.5 12.4 52 5.8 N 9 13 5 7 1004.3 1004.2 0.0
01/06:00am 22.4 21.3 12.1 52 5.9 N 9 13 5 7 1004.1 1004.0 0.0
01/05:30am 22.3 20.7 12.8 55 5.4 N 13 17 7 9 1003.9 1003.8 0.0
01/05:00am 20.4 19.1 12.4 60 4.5 N 11 13 6 7 1003.9 1003.8 0.0
01/04:30am 20.6 18.4 12.1 58 4.8 N 15 17 8 9 1004.1 1004.0 0.0
01/04:00am 19.3 19.4 12.6 65 3.8 NW 4 7 2 4 1004.5 1004.4 0.0
01/03:30am 20.5 20.0 12.7 61 4.4 NNW 7 11 4 6 1004.8 1004.6 0.0
01/03:00am 18.3 17.9 12.3 68 3.4 E 6 9 3 5 1005.4 1005.2 0.0
01/02:30am 19.1 18.9 11.7 62 4.1 WSW 4 7 2 4 1005.2 1005.0 0.0
01/02:00am 19.3 19.0 12.6 65 3.8 NNW 6 9 3 5 1005.5 1005.3 0.0
01/01:30am 19.4 18.9 11.9 62 4.2 N 6 7 3 4 1005.9 1005.7 0.0
01/01:00am 19.8 20.1 12.1 61 4.3 NNW 2 4 1 2 1006.0 1005.8 0.0
01/12:30am 19.7 19.0 11.5 59 4.5 WSW 6 6 3 3 1006.3 1006.1 0.0
01/12:00am 20.3 19.3 11.0 55 5.1 WSW 7 9 4 5 1006.5 1006.3 0.0
 
Date/Time
EDT
Tmp

°C
App
Tmp
°C
Dew
Point
°C
Rel
Hum
%
Delta-T

°C
Wind Press
QNH
hPa
Press
MSL
hPa
Rain
since
9 am
mm
Dir
 
Spd
km/h
Gust
km/h
Spd
kts
Gust
kts
31/11:30pm 19.4 18.4 10.4 56 4.9 WSW 6 7 3 4 1006.3 1006.1 0.0
31/11:00pm 19.1 18.1 10.4 57 4.7 SSE 6 7 3 4 1006.5 1006.3 0.0
31/10:30pm 21.1 19.8 10.0 49 6.0 SSE 7 9 4 5 1006.8 1006.6 0.0
31/10:00pm 21.0 20.1 10.5 51 5.8 S 6 7 3 4 1007.2 1007.0 0.0
31/09:30pm 22.5 21.3 8.2 40 7.6 SW 4 4 2 2 1007.5 1007.3 0.0
31/09:00pm 21.7 20.4 9.3 45 6.7 WSW 6 7 3 4 1007.6 1007.4 0.0
31/08:30pm 24.0 23.2 8.0 36 8.5 SW 2 7 1 4 1007.2 1007.0 0.0
31/08:00pm 26.4 25.7 6.9 29 10.3 CALM 0 2 0 1 1007.0 1006.8 0.0
31/07:30pm 27.1 25.1 7.0 28 10.7 NE 7 9 4 5 1006.9 1006.7 0.0
31/07:00pm 28.6 24.9 6.1 24 11.9 NE 15 24 8 13 1006.6 1006.4 0.0
31/06:30pm 30.3 26.4 6.9 23 12.6 ENE 17 24 9 13 1006.3 1006.1 0.0
31/06:00pm 30.5 27.1 7.7 24 12.5 E 15 19 8 10 1006.3 1006.1 0.0
31/05:30pm 32.4 27.6 7.3 21 13.8 ENE 22 28 12 15 1006.0 1005.8 0.0
31/05:00pm 33.3 28.8 10.0 24 13.5 E 24 33 13 18 1005.6 1005.4 0.0
31/04:30pm 35.7 34.0 6.0 16 16.3 W 4 7 2 4 1005.8 1005.6 0.0
31/04:00pm 35.6 31.8 1.8 12 17.3 W 11 19 6 10 1005.9 1005.7 0.0
31/03:30pm 36.1 31.8 3.3 13 17.2 WNW 15 22 8 12 1006.4 1006.2 0.0
31/03:14pm 35.7 28.1 4.1 14 16.8 WNW 33 39 18 21 1006.5 1006.3 0.0
31/03:00pm 35.1 32.6 3.6 14 16.6 ENE 6 9 3 5 1006.8 1006.6 0.0
31/02:30pm 34.6 30.5 4.2 15 16.1 NNE 15 26 8 14 1007.6 1007.4 0.0
31/02:00pm 34.1 31.0 5.6 17 15.4 NNE 11 22 6 12 1008.4 1008.2 0.0
31/01:30pm 33.7 30.0 4.4 16 15.5 N 13 22 7 12 1009.1 1008.9 0.0
31/01:00pm 33.1 30.1 7.9 21 14.0 NE 13 19 7 10 1009.7 1009.5 0.0
31/12:30pm 31.9 30.0 10.6 27 12.3 NNE 11 19 6 10 1010.4 1010.2 0.0
31/12:00pm 30.5 28.7 11.0 30 11.3 N 11 17 6 9 1011.0 1010.8 0.0
31/11:30am 28.6 27.4 11.6 34 9.8 N 9 15 5 8 1011.6 1011.4 0.0
31/11:00am 26.7 25.6 12.0 40 8.5 NNE 9 15 5 8 1012.3 1012.1 0.0
31/10:30am 25.3 24.2 10.7 40 8.2 N 7 11 4 6 1012.9 1012.8 0.0
31/10:00am 24.3 24.0 11.3 44 7.3 NNE 4 7 2 4 1013.3 1013.2 0.0
31/09:30am 22.4 22.5 10.2 46 6.7 CALM 0 4 0 2 1013.5 1013.4 0.0
31/09:00am 21.0 21.5 11.6 55 5.2 CALM 0 4 0 2 1013.7 1013.6 -
31/08:30am 18.8 18.9 11.6 63 4.0 WSW 2 4 1 2 1013.7 1013.6 -
31/08:00am 17.0 17.4 11.1 68 3.2 CALM 0 0 0 0 1013.4 1013.3 -
31/07:30am 14.9 15.0 11.5 80 1.8 SW 2 4 1 2 1013.4 1013.3 -
31/07:00am 12.7 12.1 11.6 93 0.6 SW 6 6 3 3 1013.3 1013.2 -
31/06:30am 10.9 10.2 10.1 95 0.4 SW 4 6 2 3 1013.2 1013.1 -
31/06:00am 11.1 10.3 9.7 91 0.7 WSW 4 6 2 3 1013.1 1013.0 0.0
31/05:30am 11.5 11.2 10.2 92 0.7 WSW 2 2 1 1 1013.0 1012.9 0.0
31/05:00am 11.9 11.4 10.6 92 0.7 WSW 4 4 2 2 1012.8 1012.7 0.0
31/04:30am 12.0 11.5 10.6 91 0.7 WSW 4 4 2 2 1012.6 1012.5 0.0
31/04:00am 12.6 12.8 10.5 87 1.1 CALM 0 2 0 1 1012.7 1012.6 0.0
31/03:30am 13.4 12.4 10.2 81 1.7 WSW 6 6 3 3 1012.8 1012.7 0.0
31/03:00am 13.3 12.4 10.8 85 1.3 SW 6 7 3 4 1012.7 1012.6 0.0
31/02:30am 14.6 13.6 10.4 76 2.2 WSW 6 7 3 4 1012.9 1012.8 0.0
31/02:00am 15.1 14.2 10.7 75 2.3 WSW 6 7 3 4 1013.0 1012.9 0.0
31/01:30am 15.1 14.6 10.7 75 2.3 WSW 4 6 2 3 1013.3 1013.2 0.0
31/01:00am 15.4 14.4 11.0 75 2.4 WSW 7 9 4 5 1013.6 1013.5 0.0
31/12:30am 14.6 13.7 11.2 80 1.8 SW 7 9 4 5 1013.8 1013.7 0.0
31/12:00am 15.6 14.8 11.2 75 2.4 WSW 6 6 3 3 1013.9 1013.8 0.0
 
Date/Time
EDT
Tmp

°C
App
Tmp
°C
Dew
Point
°C
Rel
Hum
%
Delta-T

°C
Wind Press
QNH
hPa
Press
MSL
hPa
Rain
since
9 am
mm
Dir
 
Spd
km/h
Gust
km/h
Spd
kts
Gust
kts
30/11:30pm 16.8 16.1 11.5 71 2.9 SW 6 6 3 3 1013.8 1013.7 0.0
30/11:00pm 16.9 16.2 11.4 70 3.0 SW 6 7 3 4 1013.9 1013.8 0.0
30/10:30pm 17.6 17.0 11.6 68 3.3 SW 6 7 3 4 1013.8 1013.7 0.0
30/10:00pm 18.9 18.3 11.7 63 4.0 SW 6 7 3 4 1013.7 1013.6 0.0
30/09:30pm 19.6 18.9 11.4 59 4.5 SSW 6 7 3 4 1013.5 1013.4 0.0
30/09:00pm 19.8 19.0 11.6 59 4.5 S 7 9 4 5 1013.0 1012.9 0.0
30/08:30pm 22.1 21.2 11.2 50 6.1 SE 7 9 4 5 1012.5 1012.4 0.0
30/08:00pm 23.2 21.9 11.3 47 6.7 SE 9 15 5 8 1012.1 1011.9 0.0
30/07:30pm 25.7 23.8 9.1 35 9.1 SE 9 20 5 11 1011.7 1011.5 0.0
30/07:00pm 28.8 26.3 5.0 22 12.3 W 7 11 4 6 1011.1 1010.9 0.0
30/06:30pm 30.4 27.5 6.3 22 12.9 W 11 17 6 9 1010.8 1010.6 0.0
30/06:00pm 31.3 28.2 3.4 17 14.3 WSW 9 20 5 11 1010.5 1010.3 0.0
30/05:30pm 31.4 28.2 5.0 19 13.9 W 11 19 6 10 1010.3 1010.1 0.0
30/05:00pm 31.0 28.8 6.1 21 13.3 NNW 7 13 4 7 1010.2 1010.0 0.0
30/04:30pm 31.3 28.8 4.9 19 13.9 NW 7 15 4 8 1010.3 1010.1 0.0
30/04:00pm 30.7 28.2 6.6 22 13.0 N 9 20 5 11 1010.5 1010.3 0.0
30/03:30pm 30.7 28.4 5.9 21 13.2 S 7 15 4 8 1010.8 1010.6 0.0
30/03:00pm 30.5 28.6 7.7 24 12.5 N 7 13 4 7 1011.4 1011.2 0.0
30/02:30pm 30.1 27.7 8.5 26 12.0 NW 11 17 6 9 1011.8 1011.6 0.0
30/02:00pm 28.6 27.1 9.3 30 10.8 N 7 13 4 7 1012.3 1012.1 0.0
30/01:30pm 28.1 26.7 9.4 31 10.4 N 7 15 4 8 1012.8 1012.7 0.0
30/01:00pm 27.9 27.1 11.0 35 9.6 W 6 11 3 6 1013.1 1013.0 0.0
30/12:30pm 26.3 25.0 10.0 36 9.1 N 7 13 4 7 1013.6 1013.5 0.0
30/12:00pm 25.7 23.9 9.5 36 8.9 N 9 13 5 7 1014.0 1013.9 0.0
30/11:30am 25.0 23.8 9.7 38 8.4 N 6 11 3 6 1014.5 1014.4 0.0
30/11:00am 24.1 23.6 12.7 49 6.6 NNE 7 11 4 6 1014.8 1014.7 0.0
30/10:30am 22.7 22.6 13.2 55 5.5 N 6 11 3 6 1015.2 1015.1 0.0
30/10:00am 21.8 22.0 14.2 62 4.4 N 6 9 3 5 1015.4 1015.3 0.0
30/09:30am 21.4 22.6 14.8 66 3.9 NNW 2 6 1 3 1015.5 1015.4 0.0
30/09:00am 19.6 20.4 14.8 74 2.8 WSW 4 7 2 4 1015.6 1015.5 0.0
30/08:30am 17.8 18.5 14.5 81 1.9 W 4 7 2 4 1015.8 1015.7 0.0
30/08:00am 16.0 17.9 15.8 99 0.1 CALM 0 2 0 1 1015.8 1015.7 0.0
30/07:30am 14.4 15.4 14.4 100 0.0 W 2 4 1 2 1015.7 1015.6 0.0
30/07:00am 13.0 13.2 13.0 100 0.0 W 4 4 2 2 1015.4 1015.3 0.0
30/06:30am 11.6 10.9 11.4 99 0.1 W 6 6 3 3 1015.2 1015.1 0.0
30/06:00am 11.5 11.9 11.3 99 0.1 CALM 0 0 0 0 1015.1 1015.0 0.0
30/05:30am 11.5 11.9 11.3 99 0.1 CALM 0 0 0 0 1014.9 1014.8 0.0
30/05:00am 12.4 13.1 12.2 99 0.1 CALM 0 0 0 0 1014.8 1014.7 0.0
30/04:30am 12.0 12.5 11.7 98 0.2 CALM 0 0 0 0 1014.8 1014.7 0.0
30/04:00am 12.6 12.9 12.3 98 0.2 N 2 2 1 1 1014.9 1014.8 0.0
30/03:30am 12.9 13.3 12.4 97 0.3 N 2 2 1 1 1015.2 1015.1 0.0
30/03:00am 13.3 13.8 12.7 96 0.3 N 2 4 1 2 1015.4 1015.3 0.0
30/02:30am 13.9 14.6 13.3 96 0.3 N 2 4 1 2 1015.7 1015.6 0.0
30/02:00am 13.8 14.7 12.9 94 0.5 CALM 0 6 0 3 1016.0 1015.9 0.0
30/01:30am 14.6 15.6 13.1 91 0.8 CALM 0 0 0 0 1016.3 1016.2 0.0
30/01:00am 15.1 16.1 13.1 88 1.1 CALM 0 0 0 0 1016.4 1016.3 0.0
30/12:30am 16.2 17.3 13.5 84 1.5 CALM 0 0 0 0 1016.8 1016.7 0.0
30/12:00am 16.4 16.4 13.5 83 1.6 N 6 7 3 4 1017.0 1016.9 0.0
 
Date/Time
EDT
Tmp

°C
App
Tmp
°C
Dew
Point
°C
Rel
Hum
%
Delta-T

°C
Wind Press
QNH
hPa
Press
MSL
hPa
Rain
since
9 am
mm
Dir
 
Spd
km/h
Gust
km/h
Spd
kts
Gust
kts
29/11:30pm 17.4 17.9 14.1 81 1.9 NE 4 7 2 4 1017.0 1016.9 0.0
29/11:00pm 17.5 17.7 14.2 81 1.9 NE 6 7 3 4 1017.1 1017.0 0.0
29/10:30pm 17.6 17.6 14.1 80 2.0 NE 7 9 4 5 1017.0 1016.9 0.0
29/10:00pm 17.1 17.0 14.0 82 1.8 ENE 7 9 4 5 1016.9 1016.8 0.0
29/09:30pm 17.2 17.0 13.5 79 2.1 ENE 7 11 4 6 1017.0 1016.9 0.0
29/09:00pm 17.4 17.2 13.5 78 2.2 ENE 7 11 4 6 1017.0 1016.9 0.0
29/08:30pm 17.9 17.9 13.6 76 2.4 E 6 7 3 4 1016.6 1016.5 0.0
29/08:00pm 18.5 18.4 13.8 74 2.7 E 7 11 4 6 1016.4 1016.3 0.0
29/07:30pm 19.0 18.1 13.8 72 3.0 E 11 15 6 8 1015.9 1015.8 0.0
29/07:00pm 19.7 18.5 13.9 69 3.3 E 13 19 7 10 1015.6 1015.5 0.0
29/06:30pm 20.5 18.8 13.7 65 3.9 E 15 20 8 11 1015.2 1015.1 0.0
29/06:00pm 21.5 19.6 14.2 63 4.3 E 17 24 9 13 1014.7 1014.6 0.0
29/05:30pm 22.3 20.4 14.2 60 4.8 E 17 26 9 14 1014.4 1014.3 0.0
29/05:00pm 22.6 19.3 13.9 58 5.1 E 24 32 13 17 1014.0 1013.9 0.0
29/04:30pm 23.7 20.9 14.4 56 5.5 E 22 30 12 16 1014.1 1014.0 0.0
29/04:00pm 24.4 21.9 13.6 51 6.3 E 19 28 10 15 1014.1 1014.0 0.0
29/03:30pm 24.6 20.8 12.5 46 7.0 E 24 35 13 19 1014.1 1014.0 0.0
29/03:00pm 25.1 22.0 12.3 45 7.4 E 20 30 11 16 1014.3 1014.2 0.0
29/02:30pm 25.9 22.1 11.3 40 8.3 ENE 22 30 12 16 1014.6 1014.5 0.0
29/02:00pm 24.9 22.5 7.1 32 9.3 SE 9 15 5 8 1015.1 1015.0 0.0
29/01:30pm 25.7 24.0 8.2 33 9.4 ENE 7 15 4 8 1015.5 1015.4 0.0

Latest Capital City Observations: Canberra | Sydney | Melbourne | Brisbane | Adelaide | Perth | Hobart | Darwin

Other Formats:

Comma delimited format used in spreadsheet applications
http://www.bom.gov.au/fwo/IDN60901/IDN60901.94752.axf

JavaScript Object Notation format (JSON) in row-major order
http://www.bom.gov.au/fwo/IDN60901/IDN60901.94752.json